Scott AFB/Midamerica Airport
KBLV : now visible

Airfield :











YOU CAN JOIN US ON...

 
LOGIN :

Register | Disclaimer

   EN    FR    IT 

 









Legend :    VFR   Marginal VFR   IFR   Intensive IFR   Very Intensive IFR
Visi :
Ceiling :
>= 8 km
>= 3000ft
5 to 8 km
1000 to 3000 ft
1500m to 5 km
500 to 1000 ft
800 to 1500m
200 to 500 ft
< 800m
< 200 ft
Symbols :   Thunderstorms  Fog  Heavy snow  Heavy precipitations  Wind > 20 kt






- Airport Elevation : 459 ft


KBLV - Scott AFB/Midamerica

CURRENT METAR :
  • 190455Z 36004KT 10SM CLR 20/17 A3015 RMK AO2A SLP210 T01970165 $

EXPIRED METARs :
  • 190355Z 00000KT 10SM CLR 20/16 A3014 RMK AO2A SLP207 T02030161 $
  • 190255Z 03003KT 10SM SCT200 21/16 A3013 RMK AO2A SLP203 T02100160 52009 $
  • 190155Z AUTO 00000KT 10SM CLR 22/16 A3012 RMK AO2 SLP200 T02230161 $
  • 190055Z 04003KT 10SM FEW060 BKN200 24/16 A3011 RMK AO2A SLP196 T02370160 $

TAF TAF KBLV
Valid from the 19 at 00:00 until the 20 at 06:00 UTC


190000Z 1900/2006 VRB06KT 9999 BKN035 QNH3010INS TX27/1920Z TN14/1912Z
KZKC FIR / North America



MET'MAP, your aeronautical weather chart ! - Copyright ORBIFLY December 2007 - Disclaimer

ORBIFLY MET'MAP TEAM :

Programming & Development : Alexandra Zaïnal
Original concept : Baudouin d'Aumeries
Technical & hardware support : Manuel Goepfert
Assistance : Marc-Olivier Méhu




SOURCES & CREDITS :

   NOAA       Earth
Advisory